sensor_id;sensor_type;location;lat;lon;timestamp;P1;durP1;ratioP1;P2;durP2;ratioP2
26686;SDS011;14298;50.900;4.648;2023-04-03T00:01:28;2.33;;;2.13;;
26686;SDS011;14298;50.900;4.648;2023-04-03T00:03:57;3.57;;;3.13;;
26686;SDS011;14298;50.900;4.648;2023-04-03T00:06:26;3.37;;;3.07;;
26686;SDS011;14298;50.900;4.648;2023-04-03T00:08:54;2.60;;;2.40;;
26686;SDS011;14298;50.900;4.648;2023-04-03T00:11:22;2.40;;;2.20;;
26686;SDS011;14298;50.900;4.648;2023-04-03T00:13:51;2.47;;;2.27;;
26686;SDS011;14298;50.900;4.648;2023-04-03T00:16:20;2.50;;;2.40;;
26686;SDS011;14298;50.900;4.648;2023-04-03T00:18:48;2.60;;;2.40;;
26686;SDS011;14298;50.900;4.648;2023-04-03T00:21:16;2.47;;;2.37;;
26686;SDS011;14298;50.900;4.648;2023-04-03T00:23:45;2.40;;;2.27;;
26686;SDS011;14298;50.900;4.648;2023-04-03T00:26:13;2.77;;;2.57;;
26686;SDS011;14298;50.900;4.648;2023-04-03T00:28:41;3.57;;;2.57;;
26686;SDS011;14298;50.900;4.648;2023-04-03T00:31:10;2.53;;;2.33;;
26686;SDS011;14298;50.900;4.648;2023-04-03T00:33:40;2.90;;;2.70;;
26686;SDS011;14298;50.900;4.648;2023-04-03T00:36:08;2.50;;;2.30;;
26686;SDS011;14298;50.900;4.648;2023-04-03T00:38:38;2.53;;;2.33;;
26686;SDS011;14298;50.900;4.648;2023-04-03T00:41:06;3.27;;;2.97;;
26686;SDS011;14298;50.900;4.648;2023-04-03T00:43:36;2.87;;;2.67;;
26686;SDS011;14298;50.900;4.648;2023-04-03T00:46:04;2.80;;;2.10;;
26686;SDS011;14298;50.900;4.648;2023-04-03T00:48:40;6.37;;;2.97;;
26686;SDS011;14298;50.900;4.648;2023-04-03T00:51:26;2.13;;;2.03;;
26686;SDS011;14298;50.900;4.648;2023-04-03T00:53:47;2.83;;;2.63;;
26686;SDS011;14298;50.900;4.648;2023-04-03T00:56:17;2.50;;;2.30;;
26686;SDS011;14298;50.900;4.648;2023-04-03T00:58:51;2.27;;;2.17;;
26686;SDS011;14298;50.900;4.648;2023-04-03T01:01:27;2.10;;;2.00;;
26686;SDS011;14298;50.900;4.648;2023-04-03T01:04:02;3.20;;;2.37;;
26686;SDS011;14298;50.900;4.648;2023-04-03T01:06:30;2.97;;;2.77;;
26686;SDS011;14298;50.900;4.648;2023-04-03T01:09:03;2.70;;;2.50;;
26686;SDS011;14298;50.900;4.648;2023-04-03T01:11:33;2.63;;;2.43;;
26686;SDS011;14298;50.900;4.648;2023-04-03T01:14:01;1.90;;;1.80;;
26686;SDS011;14298;50.900;4.648;2023-04-03T01:16:31;2.63;;;2.53;;
26686;SDS011;14298;50.900;4.648;2023-04-03T01:19:00;2.83;;;2.63;;
26686;SDS011;14298;50.900;4.648;2023-04-03T01:27:10;3.40;;;3.10;;
26686;SDS011;14298;50.900;4.648;2023-04-03T01:29:39;3.07;;;2.80;;
26686;SDS011;14298;50.900;4.648;2023-04-03T01:32:10;3.53;;;2.40;;
26686;SDS011;14298;50.900;4.648;2023-04-03T01:34:38;3.10;;;2.90;;
26686;SDS011;14298;50.900;4.648;2023-04-03T01:37:07;2.53;;;2.37;;
26686;SDS011;14298;50.900;4.648;2023-04-03T01:39:35;3.57;;;3.37;;
26686;SDS011;14298;50.900;4.648;2023-04-03T01:42:03;2.63;;;2.53;;
26686;SDS011;14298;50.900;4.648;2023-04-03T01:44:32;3.10;;;2.87;;
26686;SDS011;14298;50.900;4.648;2023-04-03T01:47:00;8.63;;;2.90;;
26686;SDS011;14298;50.900;4.648;2023-04-03T01:49:28;2.97;;;2.63;;
26686;SDS011;14298;50.900;4.648;2023-04-03T01:51:57;2.67;;;2.57;;
26686;SDS011;14298;50.900;4.648;2023-04-03T01:54:25;2.57;;;2.37;;
26686;SDS011;14298;50.900;4.648;2023-04-03T01:56:53;2.20;;;2.00;;
26686;SDS011;14298;50.900;4.648;2023-04-03T01:59:22;2.20;;;2.03;;
26686;SDS011;14298;50.900;4.648;2023-04-03T02:01:50;2.83;;;2.63;;
26686;SDS011;14298;50.900;4.648;2023-04-03T02:04:18;11.70;;;2.73;;
26686;SDS011;14298;50.900;4.648;2023-04-03T02:06:47;3.43;;;3.20;;
26686;SDS011;14298;50.900;4.648;2023-04-03T02:09:16;2.57;;;2.27;;
26686;SDS011;14298;50.900;4.648;2023-04-03T02:11:44;3.00;;;2.67;;
26686;SDS011;14298;50.900;4.648;2023-04-03T02:14:12;2.87;;;2.27;;
26686;SDS011;14298;50.900;4.648;2023-04-03T02:16:41;2.23;;;2.13;;
26686;SDS011;14298;50.900;4.648;2023-04-03T02:19:09;3.53;;;2.90;;
26686;SDS011;14298;50.900;4.648;2023-04-03T02:21:37;3.97;;;3.67;;
26686;SDS011;14298;50.900;4.648;2023-04-03T02:24:06;2.87;;;2.63;;
26686;SDS011;14298;50.900;4.648;2023-04-03T02:26:35;6.57;;;4.03;;
26686;SDS011;14298;50.900;4.648;2023-04-03T02:29:03;2.60;;;2.40;;
26686;SDS011;14298;50.900;4.648;2023-04-03T02:31:32;3.23;;;3.03;;
26686;SDS011;14298;50.900;4.648;2023-04-03T02:34:00;3.20;;;2.97;;
26686;SDS011;14298;50.900;4.648;2023-04-03T02:36:29;3.03;;;2.83;;
26686;SDS011;14298;50.900;4.648;2023-04-03T02:38:57;4.10;;;2.77;;
26686;SDS011;14298;50.900;4.648;2023-04-03T02:41:25;2.47;;;2.33;;
26686;SDS011;14298;50.900;4.648;2023-04-03T02:43:55;2.83;;;2.63;;
26686;SDS011;14298;50.900;4.648;2023-04-03T02:46:24;2.13;;;2.03;;
26686;SDS011;14298;50.900;4.648;2023-04-03T02:48:52;2.10;;;2.00;;
26686;SDS011;14298;50.900;4.648;2023-04-03T02:51:20;3.33;;;2.57;;
26686;SDS011;14298;50.900;4.648;2023-04-03T02:53:49;2.27;;;2.17;;
26686;SDS011;14298;50.900;4.648;2023-04-03T02:56:18;5.07;;;2.33;;
26686;SDS011;14298;50.900;4.648;2023-04-03T02:58:47;2.80;;;2.60;;
26686;SDS011;14298;50.900;4.648;2023-04-03T03:01:16;2.77;;;2.57;;
26686;SDS011;14298;50.900;4.648;2023-04-03T03:03:44;2.83;;;2.67;;
26686;SDS011;14298;50.900;4.648;2023-04-03T03:06:13;2.13;;;2.03;;
26686;SDS011;14298;50.900;4.648;2023-04-03T03:08:43;2.43;;;2.23;;
26686;SDS011;14298;50.900;4.648;2023-04-03T03:11:12;1.93;;;1.83;;
26686;SDS011;14298;50.900;4.648;2023-04-03T03:13:41;3.33;;;2.57;;
26686;SDS011;14298;50.900;4.648;2023-04-03T03:16:09;3.77;;;2.80;;
26686;SDS011;14298;50.900;4.648;2023-04-03T03:18:38;2.67;;;2.47;;
26686;SDS011;14298;50.900;4.648;2023-04-03T03:21:06;2.70;;;2.50;;
26686;SDS011;14298;50.900;4.648;2023-04-03T03:23:37;2.47;;;2.27;;
26686;SDS011;14298;50.900;4.648;2023-04-03T03:26:07;1.93;;;1.83;;
26686;SDS011;14298;50.900;4.648;2023-04-03T03:28:37;3.10;;;2.90;;
26686;SDS011;14298;50.900;4.648;2023-04-03T03:31:07;2.60;;;2.43;;
26686;SDS011;14298;50.900;4.648;2023-04-03T03:33:36;2.10;;;2.00;;
26686;SDS011;14298;50.900;4.648;2023-04-03T03:36:05;2.70;;;2.50;;
26686;SDS011;14298;50.900;4.648;2023-04-03T03:38:33;3.53;;;2.70;;
26686;SDS011;14298;50.900;4.648;2023-04-03T03:41:02;1.80;;;1.70;;
26686;SDS011;14298;50.900;4.648;2023-04-03T03:43:30;3.07;;;2.73;;
26686;SDS011;14298;50.900;4.648;2023-04-03T03:45:58;2.23;;;2.13;;
26686;SDS011;14298;50.900;4.648;2023-04-03T03:48:27;3.07;;;2.27;;
26686;SDS011;14298;50.900;4.648;2023-04-03T03:50:55;2.80;;;2.57;;
26686;SDS011;14298;50.900;4.648;2023-04-03T03:53:23;3.00;;;2.80;;
26686;SDS011;14298;50.900;4.648;2023-04-03T03:55:52;2.40;;;2.20;;
26686;SDS011;14298;50.900;4.648;2023-04-03T03:58:20;2.20;;;2.10;;
26686;SDS011;14298;50.900;4.648;2023-04-03T04:00:55;3.53;;;3.10;;
26686;SDS011;14298;50.900;4.648;2023-04-03T04:03:23;2.30;;;2.20;;
26686;SDS011;14298;50.900;4.648;2023-04-03T04:05:51;4.80;;;2.60;;
26686;SDS011;14298;50.900;4.648;2023-04-03T04:08:20;2.20;;;2.10;;
26686;SDS011;14298;50.900;4.648;2023-04-03T04:10:48;2.77;;;2.57;;
26686;SDS011;14298;50.900;4.648;2023-04-03T04:13:16;4.77;;;3.43;;
26686;SDS011;14298;50.900;4.648;2023-04-03T04:15:45;4.17;;;3.67;;
26686;SDS011;14298;50.900;4.648;2023-04-03T04:18:13;3.20;;;2.93;;
26686;SDS011;14298;50.900;4.648;2023-04-03T04:20:41;3.30;;;3.00;;
26686;SDS011;14298;50.900;4.648;2023-04-03T04:23:12;2.10;;;2.00;;
26686;SDS011;14298;50.900;4.648;2023-04-03T04:25:40;3.30;;;3.00;;
26686;SDS011;14298;50.900;4.648;2023-04-03T04:28:08;2.53;;;2.33;;
26686;SDS011;14298;50.900;4.648;2023-04-03T04:30:36;2.90;;;2.70;;
26686;SDS011;14298;50.900;4.648;2023-04-03T04:33:05;2.53;;;2.33;;
26686;SDS011;14298;50.900;4.648;2023-04-03T04:35:34;2.20;;;2.10;;
26686;SDS011;14298;50.900;4.648;2023-04-03T04:38:02;2.83;;;2.50;;
26686;SDS011;14298;50.900;4.648;2023-04-03T04:40:31;3.67;;;3.33;;
26686;SDS011;14298;50.900;4.648;2023-04-03T04:42:59;4.97;;;4.47;;
26686;SDS011;14298;50.900;4.648;2023-04-03T04:45:28;4.40;;;3.10;;
26686;SDS011;14298;50.900;4.648;2023-04-03T04:47:56;2.53;;;2.43;;
26686;SDS011;14298;50.900;4.648;2023-04-03T04:50:24;2.90;;;2.70;;
26686;SDS011;14298;50.900;4.648;2023-04-03T04:52:53;3.77;;;3.27;;
26686;SDS011;14298;50.900;4.648;2023-04-03T04:55:21;4.30;;;4.00;;
26686;SDS011;14298;50.900;4.648;2023-04-03T04:57:50;2.13;;;2.03;;
26686;SDS011;14298;50.900;4.648;2023-04-03T05:00:18;2.53;;;2.43;;
26686;SDS011;14298;50.900;4.648;2023-04-03T05:02:47;3.10;;;2.80;;
26686;SDS011;14298;50.900;4.648;2023-04-03T05:05:16;3.17;;;2.97;;
26686;SDS011;14298;50.900;4.648;2023-04-03T05:07:44;2.60;;;2.40;;
26686;SDS011;14298;50.900;4.648;2023-04-03T05:10:12;3.30;;;2.57;;
26686;SDS011;14298;50.900;4.648;2023-04-03T05:12:41;3.50;;;3.20;;
26686;SDS011;14298;50.900;4.648;2023-04-03T05:15:09;2.37;;;2.27;;
26686;SDS011;14298;50.900;4.648;2023-04-03T05:17:38;2.73;;;2.53;;
26686;SDS011;14298;50.900;4.648;2023-04-03T05:20:06;3.43;;;3.23;;
26686;SDS011;14298;50.900;4.648;2023-04-03T05:22:35;2.67;;;2.57;;
26686;SDS011;14298;50.900;4.648;2023-04-03T05:25:04;3.73;;;3.43;;
26686;SDS011;14298;50.900;4.648;2023-04-03T05:27:33;2.63;;;2.43;;
26686;SDS011;14298;50.900;4.648;2023-04-03T05:30:02;2.77;;;2.23;;
26686;SDS011;14298;50.900;4.648;2023-04-03T05:32:31;3.23;;;2.97;;
26686;SDS011;14298;50.900;4.648;2023-04-03T05:35:00;2.10;;;2.00;;
26686;SDS011;14298;50.900;4.648;2023-04-03T05:37:28;2.87;;;2.67;;
26686;SDS011;14298;50.900;4.648;2023-04-03T05:39:56;2.63;;;2.53;;
26686;SDS011;14298;50.900;4.648;2023-04-03T05:42:25;12.53;;;4.20;;
26686;SDS011;14298;50.900;4.648;2023-04-03T05:44:53;6.83;;;3.27;;
26686;SDS011;14298;50.900;4.648;2023-04-03T05:47:21;4.90;;;2.60;;
26686;SDS011;14298;50.900;4.648;2023-04-03T05:49:50;3.30;;;3.10;;
26686;SDS011;14298;50.900;4.648;2023-04-03T05:54:55;3.33;;;3.13;;
26686;SDS011;14298;50.900;4.648;2023-04-03T05:57:24;2.47;;;2.37;;
26686;SDS011;14298;50.900;4.648;2023-04-03T05:59:52;4.03;;;3.63;;
26686;SDS011;14298;50.900;4.648;2023-04-03T06:02:22;2.90;;;2.77;;
26686;SDS011;14298;50.900;4.648;2023-04-03T06:04:51;4.40;;;2.90;;
26686;SDS011;14298;50.900;4.648;2023-04-03T06:07:20;2.97;;;2.77;;
26686;SDS011;14298;50.900;4.648;2023-04-03T06:09:52;4.33;;;3.00;;
26686;SDS011;14298;50.900;4.648;2023-04-03T06:12:22;2.10;;;2.00;;
26686;SDS011;14298;50.900;4.648;2023-04-03T06:14:51;3.20;;;3.00;;
26686;SDS011;14298;50.900;4.648;2023-04-03T06:17:19;4.77;;;4.30;;
26686;SDS011;14298;50.900;4.648;2023-04-03T06:19:48;3.33;;;3.13;;
26686;SDS011;14298;50.900;4.648;2023-04-03T06:22:16;2.80;;;2.60;;
26686;SDS011;14298;50.900;4.648;2023-04-03T06:24:44;2.97;;;2.73;;
26686;SDS011;14298;50.900;4.648;2023-04-03T06:27:13;3.07;;;2.90;;
26686;SDS011;14298;50.900;4.648;2023-04-03T06:29:42;4.40;;;3.97;;
26686;SDS011;14298;50.900;4.648;2023-04-03T06:32:11;4.50;;;4.10;;
26686;SDS011;14298;50.900;4.648;2023-04-03T06:34:40;4.10;;;3.80;;
26686;SDS011;14298;50.900;4.648;2023-04-03T06:37:15;4.70;;;3.87;;
26686;SDS011;14298;50.900;4.648;2023-04-03T06:39:48;4.33;;;3.90;;
26686;SDS011;14298;50.900;4.648;2023-04-03T06:42:16;3.13;;;2.87;;
26686;SDS011;14298;50.900;4.648;2023-04-03T06:44:45;6.23;;;3.87;;
26686;SDS011;14298;50.900;4.648;2023-04-03T06:47:14;3.47;;;3.17;;
26686;SDS011;14298;50.900;4.648;2023-04-03T06:49:43;3.70;;;3.40;;
26686;SDS011;14298;50.900;4.648;2023-04-03T06:52:12;3.63;;;3.43;;
26686;SDS011;14298;50.900;4.648;2023-04-03T06:54:40;3.63;;;3.33;;
26686;SDS011;14298;50.900;4.648;2023-04-03T06:57:09;9.83;;;3.40;;
26686;SDS011;14298;50.900;4.648;2023-04-03T06:59:37;4.87;;;4.33;;
26686;SDS011;14298;50.900;4.648;2023-04-03T07:02:08;3.47;;;3.13;;
26686;SDS011;14298;50.900;4.648;2023-04-03T07:04:37;3.40;;;3.17;;
26686;SDS011;14298;50.900;4.648;2023-04-03T07:07:05;3.50;;;3.30;;
26686;SDS011;14298;50.900;4.648;2023-04-03T07:09:34;3.93;;;3.53;;
26686;SDS011;14298;50.900;4.648;2023-04-03T07:12:02;3.97;;;3.67;;
26686;SDS011;14298;50.900;4.648;2023-04-03T07:14:31;3.53;;;3.23;;
26686;SDS011;14298;50.900;4.648;2023-04-03T07:16:59;4.30;;;3.90;;
26686;SDS011;14298;50.900;4.648;2023-04-03T07:19:27;5.30;;;3.97;;
26686;SDS011;14298;50.900;4.648;2023-04-03T07:21:56;3.33;;;3.03;;
26686;SDS011;14298;50.900;4.648;2023-04-03T07:24:24;5.07;;;3.33;;
26686;SDS011;14298;50.900;4.648;2023-04-03T07:26:53;3.50;;;3.20;;
26686;SDS011;14298;50.900;4.648;2023-04-03T07:29:21;4.67;;;4.20;;
26686;SDS011;14298;50.900;4.648;2023-04-03T07:31:50;3.53;;;3.13;;
26686;SDS011;14298;50.900;4.648;2023-04-03T07:34:19;3.60;;;2.80;;
26686;SDS011;14298;50.900;4.648;2023-04-03T07:36:47;3.57;;;3.27;;
26686;SDS011;14298;50.900;4.648;2023-04-03T07:39:16;4.33;;;2.90;;
26686;SDS011;14298;50.900;4.648;2023-04-03T07:41:44;3.17;;;2.60;;
26686;SDS011;14298;50.900;4.648;2023-04-03T07:44:13;3.43;;;3.17;;
26686;SDS011;14298;50.900;4.648;2023-04-03T07:46:41;2.53;;;2.40;;
26686;SDS011;14298;50.900;4.648;2023-04-03T07:49:09;2.23;;;2.13;;
26686;SDS011;14298;50.900;4.648;2023-04-03T07:51:38;3.63;;;2.43;;
26686;SDS011;14298;50.900;4.648;2023-04-03T07:54:07;2.40;;;2.30;;
26686;SDS011;14298;50.900;4.648;2023-04-03T07:56:35;2.10;;;1.93;;
26686;SDS011;14298;50.900;4.648;2023-04-03T07:59:04;6.57;;;2.63;;
26686;SDS011;14298;50.900;4.648;2023-04-03T08:01:33;2.13;;;1.90;;
26686;SDS011;14298;50.900;4.648;2023-04-03T08:04:01;2.33;;;2.10;;
26686;SDS011;14298;50.900;4.648;2023-04-03T08:06:30;2.13;;;1.93;;
26686;SDS011;14298;50.900;4.648;2023-04-03T08:09:01;3.53;;;3.10;;
26686;SDS011;14298;50.900;4.648;2023-04-03T08:11:30;3.47;;;2.57;;
26686;SDS011;14298;50.900;4.648;2023-04-03T08:13:59;5.17;;;2.73;;
26686;SDS011;14298;50.900;4.648;2023-04-03T08:16:28;2.50;;;2.10;;
26686;SDS011;14298;50.900;4.648;2023-04-03T08:18:57;2.67;;;2.47;;
26686;SDS011;14298;50.900;4.648;2023-04-03T08:21:26;2.60;;;2.00;;
26686;SDS011;14298;50.900;4.648;2023-04-03T08:23:54;3.27;;;1.93;;
26686;SDS011;14298;50.900;4.648;2023-04-03T08:26:22;2.53;;;2.33;;
26686;SDS011;14298;50.900;4.648;2023-04-03T08:28:52;2.00;;;1.90;;
26686;SDS011;14298;50.900;4.648;2023-04-03T08:31:21;2.07;;;1.90;;
26686;SDS011;14298;50.900;4.648;2023-04-03T08:33:49;1.97;;;1.77;;
26686;SDS011;14298;50.900;4.648;2023-04-03T08:36:22;1.87;;;1.77;;
26686;SDS011;14298;50.900;4.648;2023-04-03T08:38:53;1.60;;;1.50;;
26686;SDS011;14298;50.900;4.648;2023-04-03T08:41:35;2.57;;;2.33;;
26686;SDS011;14298;50.900;4.648;2023-04-03T08:52:44;3.83;;;1.67;;
26686;SDS011;14298;50.900;4.648;2023-04-03T08:58:03;3.27;;;1.10;;
26686;SDS011;14298;50.900;4.648;2023-04-03T09:00:43;2.27;;;1.87;;
26686;SDS011;14298;50.900;4.648;2023-04-03T09:03:15;2.40;;;1.63;;
26686;SDS011;14298;50.900;4.648;2023-04-03T09:05:47;2.80;;;1.77;;
26686;SDS011;14298;50.900;4.648;2023-04-03T09:08:46;1.33;;;1.20;;
26686;SDS011;14298;50.900;4.648;2023-04-03T09:11:16;0.70;;;0.70;;
26686;SDS011;14298;50.900;4.648;2023-04-03T09:17:03;1.00;;;0.90;;
26686;SDS011;14298;50.900;4.648;2023-04-03T09:27:57;2.47;;;1.07;;
26686;SDS011;14298;50.900;4.648;2023-04-03T09:30:26;0.80;;;0.80;;
26686;SDS011;14298;50.900;4.648;2023-04-03T09:32:55;0.97;;;0.90;;
26686;SDS011;14298;50.900;4.648;2023-04-03T09:35:26;1.30;;;1.10;;
26686;SDS011;14298;50.900;4.648;2023-04-03T09:38:00;0.83;;;0.77;;
26686;SDS011;14298;50.900;4.648;2023-04-03T09:40:34;0.87;;;0.87;;
26686;SDS011;14298;50.900;4.648;2023-04-03T09:45:54;1.57;;;0.97;;
26686;SDS011;14298;50.900;4.648;2023-04-03T09:48:24;1.17;;;1.07;;
26686;SDS011;14298;50.900;4.648;2023-04-03T09:50:55;1.27;;;1.00;;
26686;SDS011;14298;50.900;4.648;2023-04-03T09:53:26;6.10;;;1.97;;
26686;SDS011;14298;50.900;4.648;2023-04-03T10:01:35;1.30;;;1.20;;
26686;SDS011;14298;50.900;4.648;2023-04-03T10:04:10;1.03;;;1.03;;
26686;SDS011;14298;50.900;4.648;2023-04-03T10:06:45;2.80;;;1.67;;
26686;SDS011;14298;50.900;4.648;2023-04-03T10:09:18;0.80;;;0.80;;
26686;SDS011;14298;50.900;4.648;2023-04-03T10:14:36;0.80;;;0.67;;
26686;SDS011;14298;50.900;4.648;2023-04-03T10:19:47;3.60;;;0.93;;
26686;SDS011;14298;50.900;4.648;2023-04-03T10:28:03;1.60;;;1.10;;
26686;SDS011;14298;50.900;4.648;2023-04-03T10:38:51;0.57;;;0.57;;
26686;SDS011;14298;50.900;4.648;2023-04-03T10:47:20;1.97;;;1.40;;
26686;SDS011;14298;50.900;4.648;2023-04-03T10:52:43;1.40;;;1.20;;
26686;SDS011;14298;50.900;4.648;2023-04-03T10:58:43;0.97;;;0.97;;
26686;SDS011;14298;50.900;4.648;2023-04-03T11:01:06;0.90;;;0.90;;
26686;SDS011;14298;50.900;4.648;2023-04-03T11:03:36;1.27;;;0.97;;
26686;SDS011;14298;50.900;4.648;2023-04-03T11:06:08;0.50;;;0.50;;
26686;SDS011;14298;50.900;4.648;2023-04-03T11:08:44;0.87;;;0.80;;
26686;SDS011;14298;50.900;4.648;2023-04-03T11:11:20;0.70;;;0.70;;
26686;SDS011;14298;50.900;4.648;2023-04-03T11:13:55;1.90;;;1.27;;
26686;SDS011;14298;50.900;4.648;2023-04-03T11:16:33;0.93;;;0.93;;
26686;SDS011;14298;50.900;4.648;2023-04-03T11:21:42;1.07;;;1.00;;
26686;SDS011;14298;50.900;4.648;2023-04-03T11:24:16;1.07;;;0.90;;
26686;SDS011;14298;50.900;4.648;2023-04-03T11:26:44;1.57;;;0.73;;
26686;SDS011;14298;50.900;4.648;2023-04-03T11:29:14;2.37;;;0.87;;
26686;SDS011;14298;50.900;4.648;2023-04-03T11:34:37;2.53;;;1.07;;
26686;SDS011;14298;50.900;4.648;2023-04-03T11:37:06;0.73;;;0.73;;
26686;SDS011;14298;50.900;4.648;2023-04-03T11:39:51;0.67;;;0.67;;
26686;SDS011;14298;50.900;4.648;2023-04-03T11:44:50;0.90;;;0.90;;
26686;SDS011;14298;50.900;4.648;2023-04-03T11:58:20;0.80;;;0.73;;
26686;SDS011;14298;50.900;4.648;2023-04-03T12:00:54;0.77;;;0.73;;
26686;SDS011;14298;50.900;4.648;2023-04-03T12:16:48;1.63;;;1.10;;
26686;SDS011;14298;50.900;4.648;2023-04-03T12:24:53;0.70;;;0.70;;
26686;SDS011;14298;50.900;4.648;2023-04-03T12:30:00;5.37;;;1.20;;
26686;SDS011;14298;50.900;4.648;2023-04-03T12:41:15;0.60;;;0.60;;
26686;SDS011;14298;50.900;4.648;2023-04-03T12:46:28;2.20;;;1.13;;
26686;SDS011;14298;50.900;4.648;2023-04-03T12:48:58;3.70;;;1.17;;
26686;SDS011;14298;50.900;4.648;2023-04-03T12:51:45;0.47;;;0.47;;
26686;SDS011;14298;50.900;4.648;2023-04-03T12:54:15;0.83;;;0.77;;
26686;SDS011;14298;50.900;4.648;2023-04-03T12:56:46;0.97;;;0.70;;
26686;SDS011;14298;50.900;4.648;2023-04-03T13:01:58;0.67;;;0.67;;
26686;SDS011;14298;50.900;4.648;2023-04-03T13:04:29;0.67;;;0.67;;
26686;SDS011;14298;50.900;4.648;2023-04-03T13:06:59;0.73;;;0.73;;
26686;SDS011;14298;50.900;4.648;2023-04-03T13:09:29;0.60;;;0.60;;
26686;SDS011;14298;50.900;4.648;2023-04-03T13:12:00;0.60;;;0.60;;
26686;SDS011;14298;50.900;4.648;2023-04-03T13:14:30;2.43;;;1.23;;
26686;SDS011;14298;50.900;4.648;2023-04-03T13:17:03;4.63;;;0.80;;
26686;SDS011;14298;50.900;4.648;2023-04-03T13:19:33;0.80;;;0.50;;
26686;SDS011;14298;50.900;4.648;2023-04-03T13:22:04;0.57;;;0.50;;
26686;SDS011;14298;50.900;4.648;2023-04-03T13:24:34;1.13;;;0.90;;
26686;SDS011;14298;50.900;4.648;2023-04-03T13:27:05;1.50;;;0.80;;
26686;SDS011;14298;50.900;4.648;2023-04-03T13:29:36;1.60;;;0.60;;
26686;SDS011;14298;50.900;4.648;2023-04-03T13:32:05;0.80;;;0.67;;
26686;SDS011;14298;50.900;4.648;2023-04-03T13:34:38;0.97;;;0.87;;
26686;SDS011;14298;50.900;4.648;2023-04-03T13:37:19;0.80;;;0.80;;
26686;SDS011;14298;50.900;4.648;2023-04-03T13:39:59;0.60;;;0.60;;
26686;SDS011;14298;50.900;4.648;2023-04-03T13:42:30;0.80;;;0.80;;
26686;SDS011;14298;50.900;4.648;2023-04-03T13:47:51;0.50;;;0.50;;
26686;SDS011;14298;50.900;4.648;2023-04-03T13:50:22;0.60;;;0.60;;
26686;SDS011;14298;50.900;4.648;2023-04-03T13:52:59;1.17;;;0.77;;
26686;SDS011;14298;50.900;4.648;2023-04-03T13:55:25;0.53;;;0.53;;
26686;SDS011;14298;50.900;4.648;2023-04-03T14:00:55;1.07;;;0.63;;
26686;SDS011;14298;50.900;4.648;2023-04-03T14:03:30;0.80;;;0.70;;
26686;SDS011;14298;50.900;4.648;2023-04-03T14:06:00;0.73;;;0.73;;
26686;SDS011;14298;50.900;4.648;2023-04-03T14:08:30;0.80;;;0.80;;
26686;SDS011;14298;50.900;4.648;2023-04-03T14:10:58;1.23;;;1.13;;
26686;SDS011;14298;50.900;4.648;2023-04-03T14:13:29;1.90;;;0.93;;
26686;SDS011;14298;50.900;4.648;2023-04-03T14:15:57;2.03;;;0.87;;
26686;SDS011;14298;50.900;4.648;2023-04-03T14:18:27;0.53;;;0.53;;
26686;SDS011;14298;50.900;4.648;2023-04-03T14:20:55;0.43;;;0.43;;
26686;SDS011;14298;50.900;4.648;2023-04-03T14:23:23;1.00;;;0.90;;
26686;SDS011;14298;50.900;4.648;2023-04-03T14:25:52;0.60;;;0.60;;
26686;SDS011;14298;50.900;4.648;2023-04-03T14:28:21;0.50;;;0.50;;
26686;SDS011;14298;50.900;4.648;2023-04-03T14:30:50;3.27;;;1.13;;
26686;SDS011;14298;50.900;4.648;2023-04-03T14:33:20;0.67;;;0.67;;
26686;SDS011;14298;50.900;4.648;2023-04-03T14:35:49;1.87;;;0.93;;
26686;SDS011;14298;50.900;4.648;2023-04-03T14:38:24;0.70;;;0.70;;
26686;SDS011;14298;50.900;4.648;2023-04-03T14:40:49;0.50;;;0.50;;
26686;SDS011;14298;50.900;4.648;2023-04-03T14:43:18;0.77;;;0.70;;
26686;SDS011;14298;50.900;4.648;2023-04-03T14:45:47;2.40;;;0.93;;
26686;SDS011;14298;50.900;4.648;2023-04-03T14:48:21;2.10;;;1.30;;
26686;SDS011;14298;50.900;4.648;2023-04-03T14:50:51;0.70;;;0.70;;
26686;SDS011;14298;50.900;4.648;2023-04-03T14:53:21;0.70;;;0.70;;
26686;SDS011;14298;50.900;4.648;2023-04-03T14:55:51;0.70;;;0.70;;
26686;SDS011;14298;50.900;4.648;2023-04-03T14:58:20;0.60;;;0.53;;
26686;SDS011;14298;50.900;4.648;2023-04-03T15:00:48;1.33;;;0.60;;
26686;SDS011;14298;50.900;4.648;2023-04-03T15:03:19;0.57;;;0.53;;
26686;SDS011;14298;50.900;4.648;2023-04-03T15:05:48;1.17;;;0.90;;
26686;SDS011;14298;50.900;4.648;2023-04-03T15:08:18;1.27;;;0.73;;
26686;SDS011;14298;50.900;4.648;2023-04-03T15:10:51;1.53;;;0.60;;
26686;SDS011;14298;50.900;4.648;2023-04-03T15:13:22;9.83;;;1.23;;
26686;SDS011;14298;50.900;4.648;2023-04-03T15:15:51;0.83;;;0.83;;
26686;SDS011;14298;50.900;4.648;2023-04-03T15:18:21;0.83;;;0.83;;
26686;SDS011;14298;50.900;4.648;2023-04-03T15:20:53;0.70;;;0.70;;
26686;SDS011;14298;50.900;4.648;2023-04-03T15:23:22;1.50;;;0.73;;
26686;SDS011;14298;50.900;4.648;2023-04-03T15:25:52;1.73;;;0.90;;
26686;SDS011;14298;50.900;4.648;2023-04-03T15:28:32;2.67;;;1.27;;
26686;SDS011;14298;50.900;4.648;2023-04-03T15:31:04;0.80;;;0.80;;
26686;SDS011;14298;50.900;4.648;2023-04-03T15:33:34;1.50;;;0.60;;
26686;SDS011;14298;50.900;4.648;2023-04-03T15:36:03;1.00;;;0.87;;
26686;SDS011;14298;50.900;4.648;2023-04-03T15:38:32;2.57;;;1.07;;
26686;SDS011;14298;50.900;4.648;2023-04-03T15:41:01;0.97;;;0.67;;
26686;SDS011;14298;50.900;4.648;2023-04-03T15:43:30;2.33;;;0.90;;
26686;SDS011;14298;50.900;4.648;2023-04-03T15:46:00;0.83;;;0.80;;
26686;SDS011;14298;50.900;4.648;2023-04-03T15:48:29;0.90;;;0.90;;
26686;SDS011;14298;50.900;4.648;2023-04-03T15:50:59;1.30;;;0.83;;
26686;SDS011;14298;50.900;4.648;2023-04-03T15:53:28;0.60;;;0.60;;
26686;SDS011;14298;50.900;4.648;2023-04-03T15:55:56;0.97;;;0.97;;
26686;SDS011;14298;50.900;4.648;2023-04-03T15:58:24;0.77;;;0.77;;
26686;SDS011;14298;50.900;4.648;2023-04-03T16:00:52;1.90;;;1.00;;
26686;SDS011;14298;50.900;4.648;2023-04-03T16:03:21;6.13;;;1.00;;
26686;SDS011;14298;50.900;4.648;2023-04-03T16:05:51;1.40;;;1.03;;
26686;SDS011;14298;50.900;4.648;2023-04-03T16:08:19;1.87;;;1.43;;
26686;SDS011;14298;50.900;4.648;2023-04-03T16:10:48;0.77;;;0.77;;
26686;SDS011;14298;50.900;4.648;2023-04-03T16:13:17;0.70;;;0.70;;
26686;SDS011;14298;50.900;4.648;2023-04-03T16:15:45;3.13;;;0.80;;
26686;SDS011;14298;50.900;4.648;2023-04-03T16:18:15;0.83;;;0.83;;
26686;SDS011;14298;50.900;4.648;2023-04-03T16:20:44;1.00;;;0.63;;
26686;SDS011;14298;50.900;4.648;2023-04-03T16:23:13;0.87;;;0.87;;
26686;SDS011;14298;50.900;4.648;2023-04-03T16:25:42;0.70;;;0.70;;
26686;SDS011;14298;50.900;4.648;2023-04-03T16:28:12;0.90;;;0.83;;
26686;SDS011;14298;50.900;4.648;2023-04-03T16:30:41;3.67;;;0.93;;
26686;SDS011;14298;50.900;4.648;2023-04-03T16:33:11;0.80;;;0.80;;
26686;SDS011;14298;50.900;4.648;2023-04-03T16:35:40;1.23;;;1.13;;
26686;SDS011;14298;50.900;4.648;2023-04-03T16:38:10;0.80;;;0.80;;
26686;SDS011;14298;50.900;4.648;2023-04-03T16:40:38;0.63;;;0.63;;
26686;SDS011;14298;50.900;4.648;2023-04-03T16:43:06;1.07;;;0.83;;
26686;SDS011;14298;50.900;4.648;2023-04-03T16:45:35;0.80;;;0.80;;
26686;SDS011;14298;50.900;4.648;2023-04-03T16:48:04;1.00;;;0.90;;
26686;SDS011;14298;50.900;4.648;2023-04-03T16:50:32;0.70;;;0.70;;
26686;SDS011;14298;50.900;4.648;2023-04-03T16:53:01;0.97;;;0.97;;
26686;SDS011;14298;50.900;4.648;2023-04-03T16:55:29;1.10;;;1.00;;
26686;SDS011;14298;50.900;4.648;2023-04-03T16:57:58;0.90;;;0.90;;
26686;SDS011;14298;50.900;4.648;2023-04-03T17:00:28;0.93;;;0.60;;
26686;SDS011;14298;50.900;4.648;2023-04-03T17:03:00;1.03;;;1.03;;
26686;SDS011;14298;50.900;4.648;2023-04-03T17:05:28;1.97;;;0.90;;
26686;SDS011;14298;50.900;4.648;2023-04-03T17:07:57;0.77;;;0.77;;
26686;SDS011;14298;50.900;4.648;2023-04-03T17:10:25;4.80;;;0.70;;
26686;SDS011;14298;50.900;4.648;2023-04-03T17:12:54;0.63;;;0.63;;
26686;SDS011;14298;50.900;4.648;2023-04-03T17:15:22;2.10;;;1.27;;